Time;durP1;ratioP1;P1;durP2;ratioP2;P2;SDS_P1;SDS_P2;PMS_P1;PMS_P2;Temp;Humidity;BMP_temperature;BMP_pressure;BME280_temperature;BME280_humidity;BME280_pressure;Samples;Min_cycle;Max_cycle;Signal;HPM_P1;HPM_P2
2022/12/25 04:36:14;;;;;;;;;;;7.60;99.90;;;;;;4912987;29;20006;-69
2022/12/25 04:38:41;;;;;;;;;;;7.60;99.90;;;;;;4893446;29;20038;-69
2022/12/25 04:41:08;;;;;;;;;;;7.70;99.90;;;;;;4909479;29;20050;-69
2022/12/25 04:43:35;;;;;;;;;;;7.70;99.90;;;;;;4907745;29;20023;-69
2022/12/25 04:46:02;;;;;;;;;;;7.80;99.90;;;;;;4911906;29;19987;-70
2022/12/25 04:48:30;;;;;;;;;;;7.80;99.90;;;;;;4907982;29;19939;-69
2022/12/25 04:50:56;;;;;;;;;;;7.80;99.90;;;;;;4912409;29;20287;-69
2022/12/25 04:53:25;;;;;;;;;;;7.90;99.90;;;;;;4910457;29;20031;-70
2022/12/25 04:56:00;;;;;;;;;;;7.90;99.90;;;;;;4912419;29;19927;-69
2022/12/25 04:58:26;;;;;;;;;;;7.90;99.90;;;;;;4904461;29;19931;-69
2022/12/25 05:00:53;;;;;;;;;;;7.90;99.90;;;;;;4909952;29;19927;-69
2022/12/25 05:03:20;;;;;;;;;;;7.80;99.90;;;;;;4902712;29;19927;-69
2022/12/25 05:05:48;;;;;;;;;;;7.70;99.90;;;;;;4911748;29;19934;-69
2022/12/25 05:08:15;;;;;;;;;;;7.80;99.90;;;;;;4909228;29;20399;-68
2022/12/25 05:10:43;;;;;;;;;;;7.80;99.90;;;;;;4906360;29;19935;-69
2022/12/25 05:13:10;;;;;;;;;;;7.70;99.90;;;;;;4912225;29;19983;-69
2022/12/25 05:15:38;;;;;;;;;;;7.60;99.90;;;;;;4911485;29;19928;-69
2022/12/25 05:18:05;;;;;;;;;;;7.60;99.90;;;;;;4912017;29;19959;-70
2022/12/25 05:20:32;;;;;;;;;;;7.70;99.90;;;;;;4911437;29;20351;-68
2022/12/25 05:22:59;;;;;;;;;;;7.80;99.90;;;;;;4911138;29;19931;-69
2022/12/25 05:25:25;;;;;;;;;;;7.80;99.90;;;;;;4909116;29;19931;-71
2022/12/25 05:27:54;;;;;;;;;;;7.90;99.90;;;;;;4908287;29;20050;-69
2022/12/25 05:30:20;;;;;;;;;;;7.90;99.90;;;;;;4901376;29;19962;-68
2022/12/25 05:32:47;;;;;;;;;;;7.90;99.90;;;;;;4908124;29;19935;-69
2022/12/25 05:35:14;;;;;;;;;;;7.90;99.90;;;;;;4910494;29;20589;-69
2022/12/25 05:37:41;;;;;;;;;;;7.90;99.90;;;;;;4910449;29;19928;-71
2022/12/25 05:40:09;;;;;;;;;;;8.00;99.90;;;;;;4911573;29;19975;-68
2022/12/25 05:42:35;;;;;;;;;;;8.10;99.90;;;;;;4911102;29;19968;-70
2022/12/25 05:45:04;;;;;;;;;;;8.20;99.90;;;;;;4908676;29;19932;-70
2022/12/25 05:47:31;;;;;;;;;;;8.20;99.90;;;;;;4910408;29;20466;-70
2022/12/25 05:49:58;;;;;;;;;;;8.30;99.90;;;;;;4908858;29;19936;-69
2022/12/25 05:52:24;;;;;;;;;;;8.30;99.90;;;;;;4911570;29;19954;-70
2022/12/25 05:54:51;;;;;;;;;;;8.40;99.90;;;;;;4909275;29;19928;-70
2022/12/25 05:57:18;;;;;;;;;;;8.40;99.90;;;;;;4912154;29;19927;-69
2022/12/25 05:59:45;;;;;;;;;;;8.40;99.90;;;;;;4909157;29;19928;-69
2022/12/25 06:02:13;;;;;;;;;;;8.40;99.90;;;;;;4902542;29;19936;-69
2022/12/25 06:04:40;;;;;;;;;;;8.40;99.90;;;;;;4908055;29;20283;-70
2022/12/25 06:07:06;;;;;;;;;;;8.40;99.90;;;;;;4908960;29;19935;-70
2022/12/25 06:09:33;;;;;;;;;;;8.50;99.90;;;;;;4910628;29;19928;-69
2022/12/25 06:12:00;;;;;;;;;;;8.50;99.90;;;;;;4905803;29;19927;-69
2022/12/25 06:14:27;;;;;;;;;;;8.60;99.90;;;;;;4907010;29;20335;-69
2022/12/25 06:16:54;;;;;;;;;;;8.60;99.90;;;;;;4909583;29;19927;-69
2022/12/25 06:19:22;;;;;;;;;;;8.70;99.90;;;;;;4907618;29;19951;-69
2022/12/25 06:21:52;;;;;;;;;;;8.70;99.90;;;;;;4909978;29;19936;-68
2022/12/25 06:24:19;;;;;;;;;;;8.70;99.90;;;;;;4908927;29;19935;-70
2022/12/25 06:26:46;;;;;;;;;;;8.70;99.90;;;;;;4909494;29;19927;-70
2022/12/25 06:29:13;;;;;;;;;;;8.70;99.90;;;;;;4904354;29;19932;-69
2022/12/25 06:31:39;;;;;;;;;;;8.70;99.90;;;;;;4910583;29;20417;-70
2022/12/25 06:34:06;;;;;;;;;;;8.80;99.90;;;;;;4908999;29;19932;-70
2022/12/25 06:36:36;;;;;;;;;;;8.90;99.90;;;;;;4907912;29;19927;-69
2022/12/25 06:39:03;;;;;;;;;;;8.90;99.90;;;;;;4905811;29;19931;-69
2022/12/25 06:41:30;;;;;;;;;;;8.90;99.90;;;;;;4906171;29;20395;-69
2022/12/25 06:43:57;;;;;;;;;;;8.90;99.90;;;;;;4910418;29;19931;-68
2022/12/25 06:46:25;;;;;;;;;;;9.00;99.90;;;;;;4910581;29;19938;-68
2022/12/25 06:48:52;;;;;;;;;;;9.00;99.90;;;;;;4910407;29;19927;-71
2022/12/25 06:51:20;;;;;;;;;;;9.00;99.90;;;;;;4910923;29;19938;-69
2022/12/25 06:53:48;;;;;;;;;;;9.00;99.90;;;;;;4908205;29;19931;-68
2022/12/25 06:56:16;;;;;;;;;;;9.10;99.90;;;;;;4908436;29;19943;-69
2022/12/25 06:58:43;;;;;;;;;;;9.10;99.90;;;;;;4908959;29;20355;-68
2022/12/25 07:01:13;;;;;;;;;;;9.10;99.90;;;;;;4909182;29;20026;-73
2022/12/25 07:03:41;;;;;;;;;;;9.10;99.90;;;;;;4908827;29;20025;-66
2022/12/25 07:06:07;;;;;;;;;;;9.10;99.90;;;;;;4907265;29;19931;-68
2022/12/25 07:08:34;;;;;;;;;;;9.10;99.90;;;;;;4904963;29;19927;-69
2022/12/25 07:11:02;;;;;;;;;;;9.10;99.90;;;;;;4905562;29;19928;-67
2022/12/25 07:13:29;;;;;;;;;;;9.20;99.90;;;;;;4905946;29;20022;-68
2022/12/25 07:15:56;;;;;;;;;;;9.10;99.90;;;;;;4909142;29;19934;-67
2022/12/25 07:18:23;;;;;;;;;;;9.10;99.90;;;;;;4904320;29;20046;-67
2022/12/25 07:20:50;;;;;;;;;;;9.10;99.90;;;;;;4906139;29;19931;-67
2022/12/25 07:23:17;;;;;;;;;;;9.00;99.90;;;;;;4910431;29;19933;-68
2022/12/25 07:25:43;;;;;;;;;;;9.00;99.90;;;;;;4909607;29;19934;-67
2022/12/25 07:28:12;;;;;;;;;;;9.10;99.90;;;;;;4912667;29;19934;-68
2022/12/25 07:30:38;;;;;;;;;;;9.10;99.90;;;;;;4904773;29;19928;-67
2022/12/25 07:33:05;;;;;;;;;;;9.10;99.90;;;;;;4911553;29;19931;-69
2022/12/25 07:35:32;;;;;;;;;;;9.20;99.90;;;;;;4915176;29;19931;-66
2022/12/25 07:37:59;;;;;;;;;;;9.20;99.90;;;;;;4911740;29;20141;-73
2022/12/25 07:40:25;;;;;;;;;;;9.20;99.90;;;;;;4913865;29;20388;-68
2022/12/25 07:42:52;;;;;;;;;;;9.20;99.90;;;;;;4913267;29;19931;-72
2022/12/25 07:45:20;;;;;;;;;;;9.20;99.90;;;;;;4901826;29;19967;-67
2022/12/25 07:47:47;;;;;;;;;;;9.20;99.90;;;;;;4897771;29;20313;-67
2022/12/25 07:50:14;;;;;;;;;;;9.20;99.90;;;;;;4898035;29;19935;-68
2022/12/25 07:52:41;;;;;;;;;;;9.20;99.90;;;;;;4913016;29;19996;-67
2022/12/25 07:55:08;;;;;;;;;;;9.20;99.90;;;;;;4906073;29;19931;-67
2022/12/25 07:57:35;;;;;;;;;;;9.20;99.90;;;;;;4897882;29;19928;-67
2022/12/25 08:00:02;;;;;;;;;;;9.30;99.90;;;;;;4895959;29;19927;-68
2022/12/25 08:02:40;;;;;;;;;;;9.30;99.90;;;;;;4886735;29;19951;-68
2022/12/25 08:05:07;;;;;;;;;;;9.30;99.90;;;;;;4895815;29;20296;-68
2022/12/25 08:07:34;;;;;;;;;;;9.30;99.90;;;;;;4892985;29;19980;-68
2022/12/25 08:10:01;;;;;;;;;;;9.30;99.90;;;;;;4895015;29;19992;-68
2022/12/25 08:12:27;;;;;;;;;;;9.40;99.90;;;;;;4904306;29;19951;-67
2022/12/25 08:14:54;;;;;;;;;;;9.40;99.90;;;;;;4904172;29;20339;-69
2022/12/25 08:17:21;;;;;;;;;;;9.40;99.90;;;;;;4908197;29;19931;-69
2022/12/25 08:19:49;;;;;;;;;;;9.40;99.90;;;;;;4906168;29;19927;-67
2022/12/25 08:22:16;;;;;;;;;;;9.40;99.90;;;;;;4903236;29;19932;-68
2022/12/25 08:24:43;;;;;;;;;;;9.40;99.90;;;;;;4907785;29;19960;-69
2022/12/25 08:27:09;;;;;;;;;;;9.40;99.90;;;;;;4907727;29;19976;-69
2022/12/25 08:29:36;;;;;;;;;;;9.40;99.90;;;;;;4906492;29;19928;-69
2022/12/25 08:32:03;;;;;;;;;;;9.40;99.90;;;;;;4905649;29;19927;-69
2022/12/25 08:34:30;;;;;;;;;;;9.40;99.90;;;;;;4905452;29;19931;-69
2022/12/25 08:36:58;;;;;;;;;;;9.40;99.90;;;;;;4907244;29;19935;-69
2022/12/25 08:39:25;;;;;;;;;;;9.40;99.90;;;;;;4911048;29;19927;-69
2022/12/25 08:41:52;;;;;;;;;;;9.50;99.90;;;;;;4911069;29;19927;-70
2022/12/25 08:44:18;;;;;;;;;;;9.50;99.90;;;;;;4909643;29;19971;-69
2022/12/25 08:46:45;;;;;;;;;;;9.40;99.90;;;;;;4906886;29;19928;-69
2022/12/25 08:49:12;;;;;;;;;;;9.40;99.90;;;;;;4908375;29;19947;-68
2022/12/25 08:51:39;;;;;;;;;;;9.40;99.90;;;;;;4910742;29;19928;-70
2022/12/25 08:54:07;;;;;;;;;;;9.40;99.90;;;;;;4909711;29;19939;-69
2022/12/25 08:56:35;;;;;;;;;;;9.50;99.90;;;;;;4908685;29;20000;-69
2022/12/25 08:59:02;;;;;;;;;;;9.60;99.90;;;;;;4911828;29;19932;-69
2022/12/25 09:01:28;;;;;;;;;;;9.50;99.90;;;;;;4912155;29;20032;-69
2022/12/25 09:03:55;;;;;;;;;;;9.60;99.90;;;;;;4911834;29;19931;-69
2022/12/25 09:06:22;;;;;;;;;;;9.60;99.90;;;;;;4907756;29;19963;-69
2022/12/25 09:08:49;;;;;;;;;;;9.50;99.90;;;;;;4911168;29;19927;-68
2022/12/25 09:11:18;;;;;;;;;;;9.50;99.90;;;;;;4911913;29;20414;-69
2022/12/25 09:13:44;;;;;;;;;;;9.50;99.90;;;;;;4908488;29;20308;-69
2022/12/25 09:16:12;;;;;;;;;;;9.60;99.90;;;;;;4910227;29;19931;-69
2022/12/25 09:18:39;;;;;;;;;;;9.60;99.90;;;;;;4911539;29;19934;-69
2022/12/25 09:21:07;;;;;;;;;;;9.50;99.90;;;;;;4911750;29;19931;-68
2022/12/25 09:23:34;;;;;;;;;;;9.50;99.90;;;;;;4904273;29;19927;-69
2022/12/25 09:26:01;;;;;;;;;;;9.50;99.90;;;;;;4913663;29;19935;-70
2022/12/25 09:28:29;;;;;;;;;;;9.50;99.90;;;;;;4909678;29;19927;-69
2022/12/25 09:30:56;;;;;;;;;;;9.50;99.90;;;;;;4911322;29;20387;-68
2022/12/25 09:33:23;;;;;;;;;;;9.50;99.90;;;;;;4911681;29;19934;-70
2022/12/25 09:35:53;;;;;;;;;;;9.50;99.90;;;;;;4911191;29;20479;-68
2022/12/25 09:38:20;;;;;;;;;;;9.50;99.90;;;;;;4902530;29;20009;-68
2022/12/25 09:40:47;;;;;;;;;;;9.50;99.90;;;;;;4911388;29;19939;-66
2022/12/25 09:43:16;;;;;;;;;;;9.50;99.90;;;;;;4910974;29;19983;-69
2022/12/25 09:45:44;;;;;;;;;;;9.50;99.90;;;;;;4908432;29;19935;-69
2022/12/25 09:48:13;;;;;;;;;;;9.50;99.90;;;;;;4909597;29;19931;-69
2022/12/25 09:50:43;;;;;;;;;;;9.50;99.90;;;;;;4909390;29;19934;-69
2022/12/25 09:53:13;;;;;;;;;;;9.60;99.90;;;;;;4908903;29;20459;-69
2022/12/25 09:55:43;;;;;;;;;;;9.60;99.90;;;;;;4911650;29;20291;-69
2022/12/25 09:58:11;;;;;;;;;;;9.60;99.90;;;;;;4906029;29;19927;-69
2022/12/25 10:00:40;;;;;;;;;;;9.60;99.90;;;;;;4910350;29;19962;-67
2022/12/25 10:03:17;;;;;;;;;;;9.60;99.90;;;;;;4907344;29;20343;-69
2022/12/25 10:05:52;;;;;;;;;;;9.60;99.90;;;;;;4907893;29;19935;-69
2022/12/25 10:08:25;;;;;;;;;;;9.60;99.90;;;;;;4908706;29;19989;-67
2022/12/25 10:10:55;;;;;;;;;;;9.70;99.90;;;;;;4910789;29;20305;-70
2022/12/25 10:13:40;;;;;;;;;;;9.70;99.90;;;;;;4908294;29;19928;-69
2022/12/25 10:16:12;;;;;;;;;;;9.70;99.90;;;;;;4906208;29;19935;-69
2022/12/25 10:18:49;;;;;;;;;;;9.70;99.90;;;;;;4910282;29;19935;-69
2022/12/25 10:21:18;;;;;;;;;;;9.80;99.90;;;;;;4902421;29;19931;-69
2022/12/25 10:23:46;;;;;;;;;;;9.80;99.90;;;;;;4907345;29;19935;-69
2022/12/25 10:26:14;;;;;;;;;;;9.90;99.90;;;;;;4907199;29;20293;-69
2022/12/25 10:28:42;;;;;;;;;;;9.90;99.90;;;;;;4906312;29;19954;-69
2022/12/25 10:31:15;;;;;;;;;;;9.90;99.90;;;;;;4909219;29;19928;-69
2022/12/25 10:33:42;;;;;;;;;;;9.90;99.90;;;;;;4906640;29;19953;-70
2022/12/25 10:36:12;;;;;;;;;;;9.90;99.90;;;;;;4909925;29;19928;-69
2022/12/25 10:38:39;;;;;;;;;;;10.00;99.90;;;;;;4904690;29;19976;-69
2022/12/25 10:41:13;;;;;;;;;;;10.00;99.90;;;;;;4909173;29;20407;-70
2022/12/25 10:43:41;;;;;;;;;;;10.00;99.90;;;;;;4910659;29;19983;-68
2022/12/25 10:46:10;;;;;;;;;;;10.00;99.90;;;;;;4910157;29;19939;-70
2022/12/25 10:48:38;;;;;;;;;;;10.00;99.90;;;;;;4909034;29;19931;-69
2022/12/25 10:51:05;;;;;;;;;;;10.00;99.90;;;;;;4904862;29;19928;-69
2022/12/25 10:53:38;;;;;;;;;;;10.00;99.90;;;;;;4909686;29;19928;-68
2022/12/25 10:56:05;;;;;;;;;;;10.00;99.90;;;;;;4909422;29;19931;-71
2022/12/25 10:58:33;;;;;;;;;;;10.00;99.90;;;;;;4906971;29;19927;-69
2022/12/25 11:01:01;;;;;;;;;;;10.00;99.90;;;;;;4907952;29;19936;-69
2022/12/25 11:03:30;;;;;;;;;;;10.00;99.90;;;;;;4905531;29;19927;-68
2022/12/25 11:05:57;;;;;;;;;;;10.10;99.90;;;;;;4909176;29;19927;-68
2022/12/25 11:08:25;;;;;;;;;;;10.20;99.90;;;;;;4910120;29;19938;-67
2022/12/25 11:10:54;;;;;;;;;;;10.30;99.90;;;;;;4906642;29;19932;-69
2022/12/25 11:13:23;;;;;;;;;;;10.30;99.90;;;;;;4905871;29;19928;-68
2022/12/25 11:15:50;;;;;;;;;;;10.40;99.90;;;;;;4907543;29;19927;-68
2022/12/25 11:18:18;;;;;;;;;;;10.40;99.90;;;;;;4905859;29;19996;-66
2022/12/25 11:20:48;;;;;;;;;;;10.50;99.90;;;;;;4906874;29;19927;-68
2022/12/25 11:23:16;;;;;;;;;;;10.50;99.90;;;;;;4908051;29;19940;-69
2022/12/25 11:25:43;;;;;;;;;;;10.40;99.90;;;;;;4907908;29;20356;-68
2022/12/25 11:28:12;;;;;;;;;;;10.40;99.90;;;;;;4906733;29;19992;-68
2022/12/25 11:30:40;;;;;;;;;;;10.40;99.90;;;;;;4904333;29;19928;-68
2022/12/25 11:33:11;;;;;;;;;;;10.50;99.90;;;;;;4908102;29;20022;-69
2022/12/25 11:35:44;;;;;;;;;;;10.50;99.90;;;;;;4906857;29;19984;-68
2022/12/25 11:38:11;;;;;;;;;;;10.40;99.90;;;;;;4909183;29;19934;-68
2022/12/25 11:40:42;;;;;;;;;;;10.50;99.90;;;;;;4906410;29;19931;-68
2022/12/25 11:43:12;;;;;;;;;;;10.50;99.90;;;;;;4905551;29;19935;-68
2022/12/25 11:45:44;;;;;;;;;;;10.50;99.90;;;;;;4909793;29;19927;-68
2022/12/25 11:48:13;;;;;;;;;;;10.50;99.90;;;;;;4906543;29;19976;-69
2022/12/25 11:50:41;;;;;;;;;;;10.50;99.90;;;;;;4903525;29;19988;-68
2022/12/25 11:53:14;;;;;;;;;;;10.50;99.90;;;;;;4909978;29;19931;-68
2022/12/25 11:55:43;;;;;;;;;;;10.50;99.90;;;;;;4909103;29;19935;-68
2022/12/25 11:58:15;;;;;;;;;;;10.60;99.90;;;;;;4908470;29;19982;-68
2022/12/25 12:00:46;;;;;;;;;;;10.60;99.90;;;;;;4909019;29;19935;-68
2022/12/25 12:03:15;;;;;;;;;;;10.60;99.90;;;;;;4908109;29;19927;-68
2022/12/25 12:05:44;;;;;;;;;;;10.70;99.90;;;;;;4902780;29;19931;-68
2022/12/25 12:08:12;;;;;;;;;;;10.70;99.90;;;;;;4907311;29;19927;-68
2022/12/25 12:10:56;;;;;;;;;;;10.70;99.90;;;;;;4907799;29;19934;-67
2022/12/25 12:13:31;;;;;;;;;;;10.60;99.90;;;;;;4906503;29;19939;-69
2022/12/25 12:16:00;;;;;;;;;;;10.60;99.90;;;;;;4909914;29;19940;-68
2022/12/25 12:18:31;;;;;;;;;;;10.60;99.90;;;;;;4907295;29;19939;-71
2022/12/25 12:20:59;;;;;;;;;;;10.60;99.90;;;;;;4911370;29;20379;-67
2022/12/25 12:23:27;;;;;;;;;;;10.60;99.90;;;;;;4911695;29;19992;-67
2022/12/25 12:25:54;;;;;;;;;;;10.70;99.90;;;;;;4909150;29;19928;-68
2022/12/25 12:28:22;;;;;;;;;;;10.70;99.90;;;;;;4911416;29;19983;-67
2022/12/25 12:30:56;;;;;;;;;;;10.70;99.90;;;;;;4912399;29;19934;-68
2022/12/25 12:33:27;;;;;;;;;;;10.80;99.90;;;;;;4905068;29;19936;-68
2022/12/25 12:35:53;;;;;;;;;;;10.80;99.90;;;;;;4909673;29;20351;-68
2022/12/25 12:38:23;;;;;;;;;;;10.90;99.90;;;;;;4907561;29;20359;-67
2022/12/25 12:40:53;;;;;;;;;;;10.90;99.90;;;;;;4908053;29;19935;-67
2022/12/25 12:43:26;;;;;;;;;;;11.00;99.90;;;;;;4908418;29;19971;-68
2022/12/25 12:45:55;;;;;;;;;;;11.00;99.90;;;;;;4906809;29;19931;-69
2022/12/25 12:48:24;;;;;;;;;;;11.00;99.90;;;;;;4905048;29;19927;-68
2022/12/25 12:51:01;;;;;;;;;;;11.00;99.90;;;;;;4910149;29;19927;-68
2022/12/25 12:53:29;;;;;;;;;;;11.00;99.90;;;;;;4906553;29;19935;-68
2022/12/25 12:55:56;;;;;;;;;;;11.00;99.90;;;;;;4911772;29;19928;-67
2022/12/25 12:58:32;;;;;;;;;;;11.00;99.90;;;;;;4912273;29;19941;-68
2022/12/25 13:01:10;;;;;;;;;;;11.00;99.90;;;;;;4904270;29;20000;-68
2022/12/25 13:03:58;;;;;;;;;;;11.10;99.90;;;;;;4911054;29;19927;-68
2022/12/25 13:06:31;;;;;;;;;;;11.10;99.90;;;;;;4893202;29;19928;-67
2022/12/25 13:09:00;;;;;;;;;;;11.10;99.90;;;;;;4908320;29;19928;-68
2022/12/25 13:11:28;;;;;;;;;;;11.10;99.90;;;;;;4912039;29;19928;-68
2022/12/25 13:13:56;;;;;;;;;;;11.10;99.90;;;;;;4909214;29;19970;-67
2022/12/25 13:16:26;;;;;;;;;;;11.10;99.90;;;;;;4910122;29;19931;-69
2022/12/25 13:18:55;;;;;;;;;;;11.10;99.90;;;;;;4905236;29;20292;-68
2022/12/25 13:21:23;;;;;;;;;;;11.10;99.90;;;;;;4906877;29;19987;-68
2022/12/25 13:23:57;;;;;;;;;;;11.10;99.90;;;;;;4910327;29;20315;-68
2022/12/25 13:26:24;;;;;;;;;;;11.20;99.90;;;;;;4904955;29;19927;-68
2022/12/25 13:28:50;;;;;;;;;;;11.20;99.90;;;;;;4908300;29;19927;-68
2022/12/25 13:31:19;;;;;;;;;;;11.30;99.90;;;;;;4911554;29;19975;-68
2022/12/25 13:33:47;;;;;;;;;;;11.30;99.90;;;;;;4909215;29;19943;-69
2022/12/25 13:36:14;;;;;;;;;;;11.30;99.90;;;;;;4911804;29;19996;-68
2022/12/25 13:38:43;;;;;;;;;;;11.30;99.90;;;;;;4911178;29;19928;-68
2022/12/25 13:44:01;;;;;;;;;;;11.20;99.90;;;;;;4909421;29;20071;-68
2022/12/25 13:46:27;;;;;;;;;;;11.20;99.90;;;;;;4910313;29;19943;-67
2022/12/25 13:48:58;;;;;;;;;;;11.20;99.90;;;;;;4909629;29;19927;-68
2022/12/25 13:51:25;;;;;;;;;;;11.20;99.90;;;;;;4911313;29;20302;-69
2022/12/25 13:54:02;;;;;;;;;;;11.20;99.90;;;;;;4910865;29;19927;-68
2022/12/25 13:56:30;;;;;;;;;;;11.20;99.90;;;;;;4911701;29;19928;-68
2022/12/25 13:58:57;;;;;;;;;;;11.20;99.90;;;;;;4910749;29;20434;-67
2022/12/25 14:01:24;;;;;;;;;;;11.20;99.90;;;;;;4908991;29;19928;-67
2022/12/25 14:03:51;;;;;;;;;;;11.20;99.90;;;;;;4911273;29;19931;-68
2022/12/25 14:06:19;;;;;;;;;;;11.30;99.90;;;;;;4909531;29;19938;-69
2022/12/25 14:08:46;;;;;;;;;;;11.30;99.90;;;;;;4911091;29;19927;-68
2022/12/25 14:11:15;;;;;;;;;;;11.30;99.90;;;;;;4907125;29;19954;-67
2022/12/25 14:13:44;;;;;;;;;;;11.30;99.90;;;;;;4907973;29;19927;-68
2022/12/25 14:16:11;;;;;;;;;;;11.40;99.90;;;;;;4907102;29;19951;-68
2022/12/25 14:18:37;;;;;;;;;;;11.40;99.90;;;;;;4906328;29;20347;-68
2022/12/25 14:21:06;;;;;;;;;;;11.50;99.90;;;;;;4910447;29;19927;-68
2022/12/25 14:23:39;;;;;;;;;;;11.50;99.90;;;;;;4910836;29;19928;-68
2022/12/25 14:26:06;;;;;;;;;;;11.50;99.90;;;;;;4910350;29;20376;-68
2022/12/25 14:28:33;;;;;;;;;;;11.50;99.90;;;;;;4896941;29;19928;-69
2022/12/25 14:31:01;;;;;;;;;;;11.50;99.90;;;;;;4910664;29;19934;-68
2022/12/25 14:33:31;;;;;;;;;;;11.50;99.90;;;;;;4908392;29;19936;-68
2022/12/25 14:35:58;;;;;;;;;;;11.50;99.90;;;;;;4907734;29;19928;-68
2022/12/25 14:38:26;;;;;;;;;;;11.60;99.90;;;;;;4908605;29;19927;-68
2022/12/25 14:41:00;;;;;;;;;;;11.70;99.90;;;;;;4908494;29;19927;-69
2022/12/25 14:43:27;;;;;;;;;;;11.70;99.90;;;;;;4910484;29;19928;-68
2022/12/25 14:45:56;;;;;;;;;;;11.70;99.90;;;;;;4909463;29;19927;-69
2022/12/25 14:48:25;;;;;;;;;;;11.80;99.90;;;;;;4907119;29;19928;-68
2022/12/25 14:50:55;;;;;;;;;;;11.90;99.90;;;;;;4906141;29;20456;-68
2022/12/25 14:53:24;;;;;;;;;;;11.90;99.90;;;;;;4904459;29;19928;-68
2022/12/25 14:55:52;;;;;;;;;;;11.90;99.90;;;;;;4907146;29;19935;-68
2022/12/25 14:58:20;;;;;;;;;;;11.90;99.90;;;;;;4910115;29;20307;-67
2022/12/25 15:00:52;;;;;;;;;;;11.90;99.90;;;;;;4905926;29;19935;-68
2022/12/25 15:03:23;;;;;;;;;;;12.00;99.90;;;;;;4909276;29;20059;-68
2022/12/25 15:06:00;;;;;;;;;;;12.00;99.90;;;;;;4906163;29;19927;-68
2022/12/25 15:08:27;;;;;;;;;;;11.90;99.90;;;;;;4910723;29;19927;-67
2022/12/25 15:10:55;;;;;;;;;;;11.90;99.90;;;;;;4903411;29;19944;-69
2022/12/25 15:13:22;;;;;;;;;;;11.90;99.90;;;;;;4907294;29;19935;-68
2022/12/25 15:15:51;;;;;;;;;;;12.00;99.90;;;;;;4910201;29;19927;-68
2022/12/25 15:18:18;;;;;;;;;;;12.00;99.90;;;;;;4899343;29;19932;-68
2022/12/25 15:20:45;;;;;;;;;;;12.00;99.90;;;;;;4909188;29;20017;-68
2022/12/25 15:23:15;;;;;;;;;;;12.00;99.90;;;;;;4905302;29;19951;-68
2022/12/25 15:25:42;;;;;;;;;;;12.10;99.90;;;;;;4909685;29;19928;-67
2022/12/25 15:28:09;;;;;;;;;;;12.10;99.90;;;;;;4909431;29;19982;-68
2022/12/25 15:30:38;;;;;;;;;;;12.20;99.90;;;;;;4903487;29;19928;-68
2022/12/25 15:33:04;;;;;;;;;;;12.30;99.90;;;;;;4904402;29;19931;-68
2022/12/25 15:35:33;;;;;;;;;;;12.20;99.90;;;;;;4909854;29;19931;-69
2022/12/25 15:37:59;;;;;;;;;;;12.20;99.90;;;;;;4894627;29;20044;-69
2022/12/25 15:40:28;;;;;;;;;;;12.30;99.90;;;;;;4904481;29;19928;-68
2022/12/25 15:42:55;;;;;;;;;;;12.20;99.90;;;;;;4903453;29;19932;-69
2022/12/25 15:45:22;;;;;;;;;;;12.20;99.90;;;;;;4907217;29;19936;-68
2022/12/25 15:47:49;;;;;;;;;;;12.30;99.90;;;;;;4905762;29;20418;-68
2022/12/25 15:50:17;;;;;;;;;;;12.30;99.90;;;;;;4911757;29;19927;-68
2022/12/25 15:52:44;;;;;;;;;;;12.30;99.90;;;;;;4913100;29;20596;-68
2022/12/25 15:55:11;;;;;;;;;;;12.40;99.90;;;;;;4912705;29;20458;-68
2022/12/25 15:57:40;;;;;;;;;;;12.40;99.90;;;;;;4911517;29;20356;-68
2022/12/25 16:00:08;;;;;;;;;;;12.40;99.90;;;;;;4913133;29;19932;-67
2022/12/25 16:02:41;;;;;;;;;;;12.40;99.90;;;;;;4911145;29;19928;-68
2022/12/25 16:05:08;;;;;;;;;;;12.40;99.90;;;;;;4908428;29;19960;-68
2022/12/25 16:07:36;;;;;;;;;;;12.40;99.90;;;;;;4911310;29;19931;-68
2022/12/25 16:10:03;;;;;;;;;;;12.40;99.90;;;;;;4913026;29;19932;-68
2022/12/25 16:12:30;;;;;;;;;;;12.40;99.90;;;;;;4913167;29;19987;-69
2022/12/25 16:14:58;;;;;;;;;;;12.40;99.90;;;;;;4905162;29;19928;-68
2022/12/25 16:17:25;;;;;;;;;;;12.50;99.90;;;;;;4913152;29;20391;-68
2022/12/25 16:19:51;;;;;;;;;;;12.50;99.90;;;;;;4909260;29;19955;-68
2022/12/25 16:22:20;;;;;;;;;;;12.50;99.90;;;;;;4912958;29;20347;-69
2022/12/25 16:24:47;;;;;;;;;;;12.50;99.90;;;;;;4912938;29;19935;-68
2022/12/25 16:27:14;;;;;;;;;;;12.50;99.90;;;;;;4917149;29;19932;-67
2022/12/25 16:29:42;;;;;;;;;;;12.40;99.90;;;;;;4909959;29;19934;-70
2022/12/25 16:32:10;;;;;;;;;;;12.40;99.90;;;;;;4912633;29;20026;-69
2022/12/25 16:34:37;;;;;;;;;;;12.50;99.90;;;;;;4912805;29;19927;-69
2022/12/25 16:37:04;;;;;;;;;;;12.50;99.90;;;;;;4909976;29;20351;-66
2022/12/25 16:39:31;;;;;;;;;;;12.60;99.90;;;;;;4912194;29;19927;-67
2022/12/25 16:41:58;;;;;;;;;;;12.60;99.90;;;;;;4910835;29;19927;-68
2022/12/25 16:44:25;;;;;;;;;;;12.60;99.90;;;;;;4906323;29;19935;-68
2022/12/25 16:46:51;;;;;;;;;;;12.60;99.90;;;;;;4911400;29;19928;-68
2022/12/25 16:49:20;;;;;;;;;;;12.60;99.90;;;;;;4908424;29;20463;-65
2022/12/25 16:51:46;;;;;;;;;;;12.50;99.90;;;;;;4912179;29;19928;-68
2022/12/25 16:54:14;;;;;;;;;;;12.50;99.90;;;;;;4909754;29;19931;-68
2022/12/25 16:56:40;;;;;;;;;;;12.60;99.90;;;;;;4909157;29;19988;-68
2022/12/25 16:59:07;;;;;;;;;;;12.50;99.90;;;;;;4911742;29;19934;-68
2022/12/25 17:01:34;;;;;;;;;;;12.60;99.90;;;;;;4912102;29;19927;-68
2022/12/25 17:04:01;;;;;;;;;;;12.60;99.90;;;;;;4910765;29;19932;-67
2022/12/25 17:06:29;;;;;;;;;;;12.50;99.90;;;;;;4912520;29;19927;-68
2022/12/25 17:08:58;;;;;;;;;;;12.50;99.90;;;;;;4911526;29;19987;-69
2022/12/25 17:11:28;;;;;;;;;;;12.50;99.90;;;;;;4905859;29;19998;-67
2022/12/25 17:13:55;;;;;;;;;;;12.50;99.90;;;;;;4908917;29;19963;-69
2022/12/25 17:16:23;;;;;;;;;;;12.50;99.90;;;;;;4912204;29;19928;-69
2022/12/25 17:18:52;;;;;;;;;;;12.40;99.90;;;;;;4909062;29;20039;-68
2022/12/25 17:21:19;;;;;;;;;;;12.50;99.90;;;;;;4909790;29;19927;-68
2022/12/25 17:23:47;;;;;;;;;;;12.50;99.90;;;;;;4911401;29;19932;-68
2022/12/25 17:26:14;;;;;;;;;;;12.40;99.90;;;;;;4911041;29;19991;-67
2022/12/25 17:28:41;;;;;;;;;;;12.40;99.90;;;;;;4906470;29;20387;-67
2022/12/25 17:31:09;;;;;;;;;;;12.40;99.90;;;;;;4906398;29;20291;-68
2022/12/25 17:33:36;;;;;;;;;;;12.50;99.90;;;;;;4911731;29;19935;-68
2022/12/25 17:36:03;;;;;;;;;;;12.50;99.90;;;;;;4911955;29;20284;-69
2022/12/25 17:38:31;;;;;;;;;;;12.50;99.90;;;;;;4911671;29;19970;-68
2022/12/25 17:40:59;;;;;;;;;;;12.50;99.90;;;;;;4911290;29;19952;-69
2022/12/25 17:43:26;;;;;;;;;;;12.40;99.90;;;;;;4911653;29;19931;-68
2022/12/25 17:45:53;;;;;;;;;;;12.40;99.90;;;;;;4907234;29;20004;-68
2022/12/25 17:48:20;;;;;;;;;;;12.40;99.90;;;;;;4911779;29;19932;-65
2022/12/25 17:50:46;;;;;;;;;;;12.30;99.90;;;;;;4910853;29;19931;-68
2022/12/25 17:53:13;;;;;;;;;;;12.30;99.90;;;;;;4908677;29;19927;-67
2022/12/25 17:55:40;;;;;;;;;;;12.30;99.90;;;;;;4909358;29;19931;-67
2022/12/25 17:58:09;;;;;;;;;;;12.30;99.90;;;;;;4905473;29;19927;-68
2022/12/25 18:00:35;;;;;;;;;;;12.30;99.90;;;;;;4907054;29;20306;-65
2022/12/25 18:03:05;;;;;;;;;;;12.40;99.90;;;;;;4909691;29;20194;-66
2022/12/25 18:05:34;;;;;;;;;;;12.40;99.90;;;;;;4908165;29;19938;-67
2022/12/25 18:08:04;;;;;;;;;;;12.40;99.90;;;;;;4909093;29;19936;-68
2022/12/25 18:10:34;;;;;;;;;;;12.30;99.90;;;;;;4904627;29;19963;-67
2022/12/25 18:13:01;;;;;;;;;;;12.20;99.90;;;;;;4907296;29;19983;-67
2022/12/25 18:15:29;;;;;;;;;;;12.20;99.90;;;;;;4909315;29;19928;-68
2022/12/25 18:17:56;;;;;;;;;;;12.20;99.90;;;;;;4908660;29;19931;-68
2022/12/25 18:20:23;;;;;;;;;;;12.20;99.90;;;;;;4910452;29;19935;-68
2022/12/25 18:22:50;;;;;;;;;;;12.30;99.90;;;;;;4907339;29;19928;-68
2022/12/25 18:25:17;;;;;;;;;;;12.30;99.90;;;;;;4910378;29;20300;-68
2022/12/25 18:27:43;;;;;;;;;;;12.30;99.90;;;;;;4908411;29;19928;-68
2022/12/25 18:30:10;;;;;;;;;;;12.30;99.90;;;;;;4907781;29;19983;-68
2022/12/25 18:32:38;;;;;;;;;;;12.30;99.90;;;;;;4904877;29;19976;-67
2022/12/25 18:35:07;;;;;;;;;;;12.40;99.90;;;;;;4910517;29;19980;-68
2022/12/25 18:37:34;;;;;;;;;;;12.40;99.90;;;;;;4907536;29;19927;-68
2022/12/25 18:40:01;;;;;;;;;;;12.50;99.90;;;;;;4910134;29;20399;-69
2022/12/25 18:42:41;;;;;;;;;;;12.50;99.90;;;;;;4908602;29;19927;-68
2022/12/25 18:45:09;;;;;;;;;;;12.60;99.90;;;;;;4908195;29;19928;-68
2022/12/25 18:47:35;;;;;;;;;;;12.60;99.90;;;;;;4905719;29;20322;-68
2022/12/25 18:50:04;;;;;;;;;;;12.60;99.90;;;;;;4909824;29;19931;-67
2022/12/25 18:52:31;;;;;;;;;;;12.60;99.90;;;;;;4903818;29;19927;-67
2022/12/25 18:54:58;;;;;;;;;;;12.60;99.90;;;;;;4910552;29;19927;-66
2022/12/25 18:57:25;;;;;;;;;;;12.60;99.90;;;;;;4908858;29;19955;-69
2022/12/25 18:59:52;;;;;;;;;;;12.60;99.90;;;;;;4902717;29;19934;-68
2022/12/25 19:02:19;;;;;;;;;;;12.60;99.90;;;;;;4908141;29;19971;-67
2022/12/25 19:04:46;;;;;;;;;;;12.70;99.90;;;;;;4907808;29;19935;-68
2022/12/25 19:07:14;;;;;;;;;;;12.70;99.90;;;;;;4911192;29;19927;-69